createdAt,value
2018-07-21T00:00:54.181Z,22.33
2018-07-21T00:01:54.102Z,22.37
2018-07-21T00:02:54.616Z,22.33
2018-07-21T00:03:54.084Z,22.28
2018-07-21T00:04:54.069Z,22.35
2018-07-21T00:05:54.124Z,22.33
2018-07-21T00:06:54.049Z,22.33
2018-07-21T00:07:54.042Z,22.21
2018-07-21T00:08:54.030Z,22.24
2018-07-21T00:09:54.017Z,22.35
2018-07-21T00:10:54.071Z,22.27
2018-07-21T00:11:53.996Z,22.25
2018-07-21T00:12:53.982Z,22.17
2018-07-21T00:13:53.972Z,22.27
2018-07-21T00:14:53.961Z,22.15
2018-07-21T00:15:54.016Z,22.18
2018-07-21T00:16:53.939Z,22.21
2018-07-21T00:17:53.933Z,22.17
2018-07-21T00:18:53.917Z,22.06
2018-07-21T00:19:53.908Z,22.06
2018-07-21T00:20:53.964Z,22.06
2018-07-21T00:21:54.615Z,22.06
2018-07-21T00:22:53.877Z,22.02
2018-07-21T00:23:54.616Z,21.98
2018-07-21T00:24:53.853Z,21.99
2018-07-21T00:25:53.908Z,21.86
2018-07-21T00:26:53.833Z,21.91
2018-07-21T00:27:53.820Z,21.91
2018-07-21T00:28:53.809Z,21.91
2018-07-21T00:29:53.800Z,21.92
2018-07-21T00:30:53.861Z,21.88
2018-07-21T00:31:53.781Z,21.88
2018-07-21T00:32:53.767Z,21.90
2018-07-21T00:33:53.756Z,21.75
2018-07-21T00:34:53.761Z,21.77
2018-07-21T00:35:53.740Z,21.79
2018-07-21T00:36:53.789Z,21.79
2018-07-21T00:37:53.714Z,21.77
2018-07-21T00:38:53.704Z,21.80
2018-07-21T00:39:53.692Z,21.82
2018-07-21T00:40:53.681Z,21.74
2018-07-21T00:41:53.737Z,21.72
2018-07-21T00:42:53.657Z,21.77
2018-07-21T00:43:53.648Z,21.74
2018-07-21T00:44:54.617Z,21.69
2018-07-21T00:45:53.628Z,21.82
2018-07-21T00:46:53.681Z,21.80
2018-07-21T00:47:53.604Z,21.67
2018-07-21T00:48:53.595Z,21.56
2018-07-21T00:49:53.584Z,21.69
2018-07-21T00:50:53.576Z,21.65
2018-07-21T00:51:53.628Z,21.61
2018-07-21T00:52:53.551Z,21.59
2018-07-21T00:53:53.541Z,21.49
2018-07-21T00:54:53.537Z,21.42
2018-07-21T00:55:53.518Z,21.44
2018-07-21T00:56:53.576Z,21.37
2018-07-21T00:57:53.499Z,21.35
2018-07-21T00:58:53.488Z,21.28
2018-07-21T00:59:53.476Z,21.29
2018-07-21T01:00:53.468Z,21.28
2018-07-21T01:01:53.523Z,21.22
2018-07-21T01:02:53.443Z,21.12
2018-07-21T01:03:53.443Z,21.14
2018-07-21T01:04:53.425Z,21.10
2018-07-21T01:05:54.115Z,21.07
2018-07-21T01:06:53.466Z,21.12
2018-07-21T01:07:53.393Z,20.98
2018-07-21T01:08:53.381Z,20.98
2018-07-21T01:09:53.368Z,21.04
2018-07-21T01:10:53.357Z,21.04
2018-07-21T01:11:53.415Z,20.97
2018-07-21T01:12:53.342Z,20.89
2018-07-21T01:13:53.324Z,20.99
2018-07-21T01:14:53.316Z,21.01
2018-07-21T01:15:53.302Z,20.88
2018-07-21T01:16:53.360Z,20.95
2018-07-21T01:17:53.285Z,20.95
2018-07-21T01:18:53.270Z,20.94
2018-07-21T01:19:53.261Z,20.95
2018-07-21T01:20:53.250Z,20.88
2018-07-21T01:21:53.305Z,20.91
2018-07-21T01:22:53.228Z,20.89
2018-07-21T01:23:53.217Z,20.84
2018-07-21T01:24:53.206Z,20.84
2018-07-21T01:25:53.195Z,20.89
2018-07-21T01:26:53.689Z,20.89
2018-07-21T01:27:53.175Z,20.92
2018-07-21T01:28:53.164Z,20.98
2018-07-21T01:29:53.156Z,20.94
2018-07-21T01:30:53.142Z,20.91
2018-07-21T01:31:53.197Z,20.89
2018-07-21T01:32:53.120Z,20.94
2018-07-21T01:33:53.109Z,20.89
2018-07-21T01:34:53.095Z,21.03
2018-07-21T01:35:53.088Z,20.88
2018-07-21T01:36:53.142Z,21.01
2018-07-21T01:37:53.064Z,20.97
2018-07-21T01:38:53.057Z,20.98
2018-07-21T01:39:53.046Z,20.97
2018-07-21T01:40:53.032Z,20.95
2018-07-21T01:41:53.089Z,20.92
2018-07-21T01:42:53.012Z,20.92
2018-07-21T01:43:53.004Z,20.89
2018-07-21T01:44:52.990Z,20.87
2018-07-21T01:45:52.981Z,20.91
2018-07-21T01:46:53.034Z,20.85
2018-07-21T01:47:53.616Z,20.85
2018-07-21T01:48:52.949Z,20.94
2018-07-21T01:49:52.935Z,20.87
2018-07-21T01:50:52.926Z,20.84
2018-07-21T01:51:52.985Z,20.70
2018-07-21T01:52:52.907Z,20.79
2018-07-21T01:53:52.894Z,20.77
2018-07-21T01:54:52.882Z,20.74
2018-07-21T01:55:52.871Z,20.73
2018-07-21T01:56:52.926Z,20.77
2018-07-21T01:57:52.849Z,20.79
2018-07-21T01:58:52.841Z,20.77
2018-07-21T01:59:52.827Z,20.67
2018-07-21T02:00:52.816Z,20.66
2018-07-21T02:01:52.871Z,20.64
2018-07-21T02:02:52.791Z,20.64
2018-07-21T02:03:52.783Z,20.59
2018-07-21T02:04:52.780Z,20.57
2018-07-21T02:05:52.769Z,20.59
2018-07-21T02:06:52.816Z,20.61
2018-07-21T02:07:52.744Z,20.43
2018-07-21T02:08:53.610Z,20.51
2018-07-21T02:09:52.719Z,20.52
2018-07-21T02:10:52.708Z,20.48
2018-07-21T02:11:52.766Z,20.39
2018-07-21T02:12:52.686Z,20.50
2018-07-21T02:13:52.679Z,20.52
2018-07-21T02:14:52.666Z,20.48
2018-07-21T02:15:52.656Z,20.52
2018-07-21T02:16:52.716Z,20.48
2018-07-21T02:17:52.631Z,20.54
2018-07-21T02:19:00.761Z,20.42
2018-07-21T02:20:00.761Z,20.39
2018-07-21T02:20:52.600Z,20.36
2018-07-21T02:21:52.595Z,20.39
2018-07-21T02:22:52.778Z,20.42
2018-07-21T02:23:52.610Z,20.35
2018-07-21T02:25:00.689Z,20.36
2018-07-21T02:29:50.174Z,20.32
2018-07-21T02:30:50.125Z,20.28
2018-07-21T02:31:50.083Z,20.26
2018-07-21T02:32:50.140Z,20.32
2018-07-21T02:33:50.064Z,20.24
2018-07-21T02:34:50.058Z,20.26
2018-07-21T02:35:50.039Z,20.28
2018-07-21T02:36:50.033Z,20.28
2018-07-21T02:37:50.086Z,20.20
2018-07-21T02:38:50.006Z,20.18
2018-07-21T02:39:49.994Z,20.11
2018-07-21T02:40:49.985Z,20.14
2018-07-21T02:41:49.980Z,20.17
2018-07-21T02:42:50.030Z,20.11
2018-07-21T02:43:50.706Z,20.16
2018-07-21T02:44:49.947Z,20.11
2018-07-21T02:45:49.933Z,20.17
2018-07-21T02:46:49.922Z,20.11
2018-07-21T02:47:49.975Z,20.13
2018-07-21T02:48:49.898Z,20.18
2018-07-21T02:49:50.706Z,20.10
2018-07-21T02:50:49.881Z,20.16
2018-07-21T02:51:49.865Z,20.13
2018-07-21T02:52:49.924Z,20.06
2018-07-21T02:53:49.847Z,20.01
2018-07-21T02:54:49.842Z,19.99
2018-07-21T02:55:49.825Z,19.99
2018-07-21T02:56:49.825Z,19.96
2018-07-21T02:57:49.874Z,19.94
2018-07-21T02:58:49.796Z,19.96
2018-07-21T02:59:49.783Z,19.88
2018-07-21T03:00:49.772Z,19.96
2018-07-21T03:01:49.761Z,19.86
2018-07-21T03:02:49.817Z,19.86
2018-07-21T03:03:49.739Z,19.87
2018-07-21T03:04:49.729Z,19.92
2018-07-21T03:05:49.720Z,19.86
2018-07-21T03:06:49.709Z,19.91
2018-07-21T03:07:49.764Z,19.86
2018-07-21T03:08:49.684Z,19.95
2018-07-21T03:09:49.744Z,19.92
2018-07-21T03:10:50.202Z,19.91
2018-07-21T03:11:49.651Z,19.94
2018-07-21T03:12:49.711Z,19.99
2018-07-21T03:13:49.629Z,19.95
2018-07-21T03:14:49.621Z,19.95
2018-07-21T03:15:49.612Z,19.98
2018-07-21T03:16:49.598Z,19.86
2018-07-21T03:17:49.657Z,19.83
2018-07-21T03:18:49.579Z,19.92
2018-07-21T03:19:49.565Z,19.92
2018-07-21T03:20:49.554Z,19.80
2018-07-21T03:21:49.543Z,19.84
2018-07-21T03:22:49.609Z,19.80
2018-07-21T03:23:49.523Z,19.73
2018-07-21T03:24:49.512Z,19.69
2018-07-21T03:25:49.501Z,19.66
2018-07-21T03:26:49.490Z,19.71
2018-07-21T03:27:49.545Z,19.76
2018-07-21T03:28:49.474Z,19.61
2018-07-21T03:29:49.459Z,19.65
2018-07-21T03:30:49.455Z,19.54
2018-07-21T03:31:50.200Z,19.55
2018-07-21T03:32:49.485Z,19.58
2018-07-21T03:33:49.415Z,19.58
2018-07-21T03:34:49.406Z,19.56
2018-07-21T03:35:49.393Z,19.59
2018-07-21T03:36:49.387Z,19.61
2018-07-21T03:37:49.437Z,19.50
2018-07-21T03:38:49.360Z,19.48
2018-07-21T03:39:49.351Z,19.55
2018-07-21T03:40:49.340Z,19.50
2018-07-21T03:41:49.324Z,19.39
2018-07-21T03:42:49.382Z,19.47
2018-07-21T03:43:49.307Z,19.44
2018-07-21T03:44:49.296Z,19.44
2018-07-21T03:45:49.283Z,19.46
2018-07-21T03:46:49.271Z,19.41
2018-07-21T03:47:49.329Z,19.44
2018-07-21T03:48:49.270Z,19.37
2018-07-21T03:49:49.241Z,19.33
2018-07-21T03:50:49.230Z,19.23
2018-07-21T03:51:49.221Z,19.29
2018-07-21T03:52:49.775Z,19.26
2018-07-21T03:53:57.263Z,19.33
2018-07-21T03:54:49.185Z,19.31
2018-07-21T03:55:57.779Z,19.31
2018-07-21T03:56:49.163Z,19.29
2018-07-21T03:57:56.739Z,19.31
2018-07-21T03:58:49.147Z,19.29
2018-07-21T03:59:57.716Z,19.33
2018-07-21T04:00:49.120Z,19.32
2018-07-21T04:01:49.112Z,19.32
2018-07-21T04:02:56.706Z,19.29
2018-07-21T04:03:49.089Z,19.28
2018-07-21T04:04:49.075Z,19.31
2018-07-21T04:05:49.069Z,19.31
2018-07-21T04:06:49.056Z,19.39
2018-07-21T04:07:49.050Z,19.40
2018-07-21T04:08:57.274Z,19.28
2018-07-21T04:09:57.168Z,19.26
2018-07-21T04:10:49.020Z,19.31
2018-07-21T04:11:49.006Z,19.33
2018-07-21T04:12:48.991Z,19.37
2018-07-21T04:13:49.045Z,19.33
2018-07-21T04:14:48.968Z,19.33
2018-07-21T04:15:48.959Z,19.25
2018-07-21T04:16:48.946Z,19.28
2018-07-21T04:17:48.935Z,19.33
2018-07-21T04:18:48.992Z,19.28
2018-07-21T04:19:48.915Z,19.31
2018-07-21T04:20:48.910Z,19.26
2018-07-21T04:21:48.890Z,19.28
2018-07-21T04:22:48.884Z,19.31
2018-07-21T04:23:48.934Z,19.29
2018-07-21T04:24:48.857Z,19.32
2018-07-21T04:25:48.849Z,19.31
2018-07-21T04:26:48.838Z,19.33
2018-07-21T04:27:48.827Z,19.31
2018-07-21T04:28:48.882Z,19.33
2018-07-21T04:29:48.804Z,19.33
2018-07-21T04:30:49.451Z,19.33
2018-07-21T04:31:48.801Z,19.29
2018-07-21T04:32:48.771Z,19.25
2018-07-21T04:33:48.826Z,19.31
2018-07-21T04:34:48.749Z,19.36
2018-07-21T04:35:48.738Z,19.31
2018-07-21T04:36:48.729Z,19.28
2018-07-21T04:37:48.721Z,19.28
2018-07-21T04:38:48.771Z,19.31
2018-07-21T04:39:48.701Z,19.25
2018-07-21T04:40:48.683Z,19.26
2018-07-21T04:41:48.671Z,19.33
2018-07-21T04:42:48.661Z,19.31
2018-07-21T04:43:48.716Z,19.32
2018-07-21T04:44:48.638Z,19.29
2018-07-21T04:45:48.628Z,19.16
2018-07-21T04:46:48.616Z,19.28
2018-07-21T04:47:48.607Z,19.23
2018-07-21T04:48:48.660Z,19.28
2018-07-21T04:49:48.583Z,19.21
2018-07-21T04:50:48.572Z,19.22
2018-07-21T04:51:49.454Z,19.21
2018-07-21T04:52:48.550Z,19.14
2018-07-21T04:53:48.610Z,19.22
2018-07-21T04:54:48.533Z,19.18
2018-07-21T04:55:48.519Z,19.22
2018-07-21T04:56:48.508Z,19.22
2018-07-21T04:57:48.498Z,19.25
2018-07-21T04:58:48.550Z,19.21
2018-07-21T04:59:48.478Z,19.16
2018-07-21T05:00:48.506Z,19.13
2018-07-21T05:01:48.457Z,19.13
2018-07-21T05:02:48.439Z,19.14
2018-07-21T05:03:48.494Z,19.14
2018-07-21T05:04:48.947Z,19.22
2018-07-21T05:05:48.408Z,19.14
2018-07-21T05:06:48.403Z,19.22
2018-07-21T05:07:48.394Z,19.25
2018-07-21T05:08:48.442Z,19.26
2018-07-21T05:09:48.364Z,19.26
2018-07-21T05:10:48.356Z,19.28
2018-07-21T05:11:48.345Z,19.31
2018-07-21T05:12:48.949Z,19.31
2018-07-21T05:13:48.386Z,19.36
2018-07-21T05:14:48.309Z,19.37
2018-07-21T05:15:48.300Z,19.40
2018-07-21T05:16:48.292Z,19.33
2018-07-21T05:17:48.281Z,19.41
2018-07-21T05:18:48.334Z,19.41
2018-07-21T05:19:48.296Z,19.44
2018-07-21T05:20:48.245Z,19.40
2018-07-21T05:21:48.234Z,19.44
2018-07-21T05:22:48.223Z,19.43
2018-07-21T05:23:48.281Z,19.39
2018-07-21T05:24:48.201Z,19.47
2018-07-21T05:25:48.190Z,19.46
2018-07-21T05:26:48.179Z,19.46
2018-07-21T05:27:48.166Z,19.43
2018-07-21T05:28:48.223Z,19.40
2018-07-21T05:29:48.146Z,19.44
2018-07-21T05:30:48.135Z,19.44
2018-07-21T05:31:48.124Z,19.37
2018-07-21T05:32:48.113Z,19.36
2018-07-21T05:33:48.523Z,19.32
2018-07-21T05:34:48.093Z,19.36
2018-07-21T05:35:48.082Z,19.40
2018-07-21T05:36:48.069Z,19.39
2018-07-21T05:37:48.063Z,19.32
2018-07-21T05:38:48.126Z,19.43
2018-07-21T05:39:48.042Z,19.39
2018-07-21T05:40:48.033Z,19.43
2018-07-21T05:41:48.016Z,19.40
2018-07-21T05:42:48.005Z,19.37
2018-07-21T05:43:47.994Z,19.43
2018-07-21T05:44:48.055Z,19.43
2018-07-21T05:45:47.972Z,19.54
2018-07-21T05:46:47.961Z,19.44
2018-07-21T05:47:47.958Z,19.44
2018-07-21T05:48:47.943Z,19.46
2018-07-21T05:49:47.998Z,19.43
2018-07-21T05:50:47.922Z,19.58
2018-07-21T05:51:47.911Z,19.48
2018-07-21T05:52:47.902Z,19.50
2018-07-21T05:53:47.892Z,19.56
2018-07-21T05:54:48.028Z,19.59
2018-07-21T05:55:47.873Z,19.54
2018-07-21T05:56:47.856Z,19.65
2018-07-21T05:57:47.843Z,19.65
2018-07-21T05:58:47.833Z,19.65
2018-07-21T05:59:47.891Z,19.73
2018-07-21T06:00:47.809Z,19.74
2018-07-21T06:01:47.803Z,19.73
2018-07-21T06:02:47.852Z,19.87
2018-07-21T06:03:47.781Z,19.88
2018-07-21T06:04:47.840Z,19.88
2018-07-21T06:05:47.769Z,19.83
2018-07-21T06:06:47.748Z,19.92
2018-07-21T06:07:47.743Z,19.99
2018-07-21T06:08:55.933Z,20.05
2018-07-21T06:09:55.854Z,20.05
2018-07-21T06:10:56.595Z,20.02
2018-07-21T06:11:55.234Z,20.08
2018-07-21T06:12:47.689Z,20.13
2018-07-21T06:13:47.673Z,20.13
2018-07-21T06:14:47.726Z,20.10
2018-07-21T06:15:47.654Z,20.20
2018-07-21T06:16:55.786Z,20.14
2018-07-21T06:17:55.744Z,20.28
2018-07-21T06:18:55.754Z,20.32
2018-07-21T06:19:55.815Z,20.26
2018-07-21T06:20:55.663Z,20.41
2018-07-21T06:21:55.112Z,20.43
2018-07-21T06:22:47.577Z,20.48
2018-07-21T06:23:47.610Z,20.52
2018-07-21T06:24:47.615Z,20.51
2018-07-21T06:25:47.543Z,20.55
2018-07-21T06:26:47.530Z,20.61
2018-07-21T06:27:47.527Z,20.70
2018-07-21T06:28:47.510Z,20.77
2018-07-21T06:29:47.566Z,20.79
2018-07-21T06:30:47.488Z,20.94
2018-07-21T06:31:47.477Z,20.91
2018-07-21T06:32:47.479Z,20.98
2018-07-21T06:33:47.455Z,21.03
2018-07-21T06:34:47.510Z,21.09
2018-07-21T06:35:47.440Z,21.07
2018-07-21T06:36:47.427Z,21.13
2018-07-21T06:37:47.411Z,21.28
2018-07-21T06:38:47.403Z,21.24
2018-07-21T06:39:47.457Z,21.44
2018-07-21T06:40:47.383Z,21.44
2018-07-21T06:41:47.372Z,21.65
2018-07-21T06:42:48.294Z,21.71
2018-07-21T06:43:47.358Z,21.72
2018-07-21T06:44:47.410Z,21.71
2018-07-21T06:45:47.328Z,21.80
2018-07-21T06:46:47.319Z,21.88
2018-07-21T06:47:47.308Z,21.90
2018-07-21T06:48:47.297Z,22.05
2018-07-21T06:49:47.350Z,22.05
2018-07-21T06:50:47.273Z,22.09
2018-07-21T06:51:47.271Z,22.12
2018-07-21T06:52:47.250Z,22.33
2018-07-21T06:53:47.250Z,22.37
2018-07-21T06:54:47.297Z,22.42
2018-07-21T06:55:47.220Z,22.45
2018-07-21T06:56:47.209Z,22.55
2018-07-21T06:57:47.200Z,22.65
2018-07-21T06:58:47.187Z,22.76
2018-07-21T06:59:47.254Z,22.70
2018-07-21T07:00:47.165Z,22.90
2018-07-21T07:01:47.161Z,23.04
2018-07-21T07:02:47.147Z,23.31
2018-07-21T07:03:47.802Z,23.50
2018-07-21T07:04:47.267Z,23.83
2018-07-21T07:05:47.115Z,23.97
2018-07-21T07:06:47.104Z,24.08
2018-07-21T07:07:47.097Z,24.24
2018-07-21T07:08:47.088Z,24.30
2018-07-21T07:09:47.131Z,24.50
2018-07-21T07:10:47.061Z,24.49
2018-07-21T07:11:47.054Z,24.58
2018-07-21T07:12:47.045Z,24.67
2018-07-21T07:13:47.034Z,24.65
2018-07-21T07:14:47.084Z,24.69
2018-07-21T07:15:47.009Z,24.80
2018-07-21T07:16:46.998Z,24.93
2018-07-21T07:17:46.987Z,24.95
2018-07-21T07:18:46.976Z,24.91
2018-07-21T07:19:47.058Z,24.95
2018-07-21T07:20:47.015Z,24.98
2018-07-21T07:21:46.951Z,25.14
2018-07-21T07:22:46.934Z,25.21
2018-07-21T07:23:46.923Z,25.24
2018-07-21T07:24:47.800Z,25.33
2018-07-21T07:25:46.962Z,25.42
2018-07-21T07:26:46.891Z,25.35
2018-07-21T07:27:46.879Z,25.32
2018-07-21T07:28:46.873Z,25.32
2018-07-21T07:29:46.860Z,25.39
2018-07-21T07:30:46.921Z,25.46
2018-07-21T07:31:46.843Z,25.52
2018-07-21T07:32:46.832Z,25.51
2018-07-21T07:33:46.818Z,25.50
2018-07-21T07:34:46.810Z,25.46
2018-07-21T07:35:46.869Z,25.40
2018-07-21T07:36:46.787Z,25.58
2018-07-21T07:37:46.781Z,25.55
2018-07-21T07:38:46.768Z,25.62
2018-07-21T07:39:46.754Z,25.55
2018-07-21T07:40:46.818Z,25.51
2018-07-21T07:41:46.739Z,25.54
2018-07-21T07:42:46.727Z,25.52
2018-07-21T07:43:46.722Z,25.64
2018-07-21T07:44:46.708Z,25.85
2018-07-21T07:45:47.364Z,26.01
2018-07-21T07:46:46.687Z,26.30
2018-07-21T07:47:46.674Z,26.40
2018-07-21T07:48:46.666Z,26.54
2018-07-21T07:49:46.655Z,26.73
2018-07-21T07:50:46.713Z,26.72
2018-07-21T07:51:46.633Z,26.89
2018-07-21T07:52:46.626Z,27.04
2018-07-21T07:53:46.617Z,27.36
2018-07-21T07:54:46.605Z,27.51
2018-07-21T07:55:46.664Z,27.57
2018-07-21T07:56:46.593Z,27.49
2018-07-21T07:57:46.574Z,27.51
2018-07-21T07:58:46.563Z,27.50
2018-07-21T07:59:46.555Z,27.51
2018-07-21T08:00:46.608Z,27.60
2018-07-21T08:01:46.533Z,27.63
2018-07-21T08:02:46.525Z,27.57
2018-07-21T08:03:46.519Z,27.43
2018-07-21T08:04:46.506Z,27.37
2018-07-21T08:05:46.563Z,27.37
2018-07-21T08:06:47.304Z,27.28
2018-07-21T08:07:46.472Z,27.44
2018-07-21T08:08:46.472Z,27.70
2018-07-21T08:09:46.455Z,27.69
2018-07-21T08:10:46.513Z,27.63
2018-07-21T08:11:46.435Z,27.41
2018-07-21T08:12:46.427Z,27.51
2018-07-21T08:13:46.414Z,27.70
2018-07-21T08:14:46.406Z,27.72
2018-07-21T08:15:46.464Z,27.97
2018-07-21T08:16:46.386Z,28.18
2018-07-21T08:17:46.377Z,28.04
2018-07-21T08:18:46.372Z,28.21
2018-07-21T08:19:46.358Z,28.46
2018-07-21T08:20:46.411Z,28.76
2018-07-21T08:21:46.340Z,28.89
2018-07-21T08:22:46.325Z,29.02
2018-07-21T08:23:46.314Z,29.05
2018-07-21T08:24:46.308Z,29.16
2018-07-21T08:25:46.367Z,29.26
2018-07-21T08:26:46.289Z,29.18
2018-07-21T08:27:46.800Z,28.95
2018-07-21T08:28:46.269Z,29.09
2018-07-21T08:29:46.261Z,29.31
2018-07-21T08:30:46.322Z,29.63
2018-07-21T08:31:46.244Z,29.83
2018-07-21T08:32:46.230Z,29.90
2018-07-21T08:33:46.219Z,29.94
2018-07-21T08:34:46.281Z,29.98
2018-07-21T08:35:46.272Z,30.10
2018-07-21T08:36:46.195Z,30.17
2018-07-21T08:37:46.183Z,30.42
2018-07-21T08:38:46.178Z,30.47
2018-07-21T08:39:46.166Z,30.60
2018-07-21T08:40:46.224Z,30.76
2018-07-21T08:41:46.147Z,31.01
2018-07-21T08:42:46.139Z,31.20
2018-07-21T08:43:46.133Z,31.39
2018-07-21T08:44:46.122Z,31.31
2018-07-21T08:45:46.180Z,31.23
2018-07-21T08:46:46.105Z,30.98
2018-07-21T08:47:46.094Z,30.82
2018-07-21T08:48:46.801Z,30.53
2018-07-21T08:49:46.087Z,30.51
2018-07-21T08:50:46.132Z,30.58
2018-07-21T08:51:46.068Z,30.69
2018-07-21T08:52:46.049Z,30.46
2018-07-21T08:53:46.038Z,30.39
2018-07-21T08:54:46.030Z,30.31
2018-07-21T08:55:46.163Z,30.46
2018-07-21T08:56:46.011Z,30.80
2018-07-21T08:57:46.005Z,30.91
2018-07-21T08:58:45.994Z,31.13
2018-07-21T08:59:45.985Z,31.31
2018-07-21T09:00:46.041Z,31.28
2018-07-21T09:01:45.966Z,31.06
2018-07-21T09:02:45.968Z,30.75
2018-07-21T09:03:45.947Z,30.60
2018-07-21T09:04:45.935Z,30.64
2018-07-21T09:05:46.028Z,30.32
2018-07-21T09:06:45.919Z,29.94
2018-07-21T09:07:45.910Z,29.89
2018-07-21T09:08:53.431Z,29.78
2018-07-21T09:09:45.893Z,29.65
2018-07-21T09:10:45.886Z,29.65
2018-07-21T09:11:45.943Z,29.92
2018-07-21T09:12:45.863Z,29.90
2018-07-21T09:13:45.856Z,29.98
2018-07-21T09:14:45.841Z,30.19
2018-07-21T09:15:45.835Z,30.13
2018-07-21T09:16:45.896Z,30.04
2018-07-21T09:17:45.813Z,30.60
2018-07-21T09:18:45.805Z,30.22
2018-07-21T09:19:45.794Z,30.43
2018-07-21T09:20:45.785Z,30.95
2018-07-21T09:21:45.846Z,30.94
2018-07-21T09:22:45.769Z,31.14
2018-07-21T09:23:45.758Z,31.34
2018-07-21T09:24:45.746Z,31.48
2018-07-21T09:25:45.741Z,31.70
2018-07-21T09:26:45.807Z,31.41
2018-07-21T09:27:45.726Z,31.66
2018-07-21T09:28:45.710Z,31.47
2018-07-21T09:29:46.351Z,31.38
2018-07-21T09:30:45.691Z,32.14
2018-07-21T09:31:45.746Z,32.19
2018-07-21T09:32:45.680Z,32.21
2018-07-21T09:33:45.664Z,32.65
2018-07-21T09:34:45.663Z,32.70
2018-07-21T09:35:45.644Z,33.28
2018-07-21T09:36:45.699Z,33.06
2018-07-21T09:37:45.635Z,33.21
2018-07-21T09:38:45.621Z,32.92
2018-07-21T09:39:45.607Z,32.82
2018-07-21T09:40:45.599Z,32.84
2018-07-21T09:41:45.659Z,32.82
2018-07-21T09:42:45.585Z,33.16
2018-07-21T09:43:45.574Z,33.41
2018-07-21T09:44:45.565Z,33.21
2018-07-21T09:45:45.554Z,33.03
2018-07-21T09:46:45.609Z,33.23
2018-07-21T09:47:45.537Z,33.34
2018-07-21T09:48:45.532Z,33.21
2018-07-21T09:49:45.518Z,33.72
2018-07-21T09:50:46.353Z,34.02
2018-07-21T09:51:45.572Z,34.52
2018-07-21T09:52:45.493Z,34.91
2018-07-21T09:53:45.491Z,35.06
2018-07-21T09:54:45.476Z,35.37
2018-07-21T09:55:45.508Z,35.34
2018-07-21T09:56:45.525Z,35.60
2018-07-21T09:57:53.584Z,35.84
2018-07-21T09:58:53.589Z,35.99
2018-07-21T09:59:45.434Z,36.25
2018-07-21T10:00:45.432Z,36.35
2018-07-21T10:01:45.486Z,36.62
2018-07-21T10:02:45.414Z,36.75
2018-07-21T10:03:45.411Z,36.75
2018-07-21T10:04:45.407Z,36.41
2018-07-21T10:05:53.533Z,36.05
2018-07-21T10:06:53.609Z,36.01
2018-07-21T10:08:00.509Z,36.29
2018-07-21T10:08:52.886Z,36.56
2018-07-21T10:09:53.459Z,36.91
2018-07-21T10:10:45.347Z,37.09
2018-07-21T10:11:45.408Z,37.39
2018-07-21T10:12:45.330Z,37.69
2018-07-21T10:13:45.324Z,37.89
2018-07-21T10:14:45.316Z,38.07
2018-07-21T10:15:45.319Z,37.98
2018-07-21T10:16:45.365Z,38.00
2018-07-21T10:17:45.297Z,38.13
2018-07-21T10:18:45.292Z,38.12
2018-07-21T10:19:45.285Z,37.81
2018-07-21T10:20:45.271Z,37.66
2018-07-21T10:21:45.384Z,37.74
2018-07-21T10:22:45.257Z,37.96
2018-07-21T10:23:45.252Z,38.13
2018-07-21T10:24:45.246Z,38.31
2018-07-21T10:25:45.237Z,38.32
2018-07-21T10:26:45.650Z,38.38
2018-07-21T10:27:45.217Z,38.40
2018-07-21T10:28:45.215Z,38.49
2018-07-21T10:29:45.207Z,38.16
2018-07-21T10:30:46.070Z,38.00
2018-07-21T10:31:45.264Z,38.01
2018-07-21T10:32:45.184Z,38.15
2018-07-21T10:33:45.181Z,38.40
2018-07-21T10:34:45.167Z,38.46
2018-07-21T10:35:45.161Z,38.78
2018-07-21T10:36:45.224Z,39.09
2018-07-21T10:37:45.144Z,39.38
2018-07-21T10:38:45.142Z,39.51
2018-07-21T10:39:45.131Z,39.73
2018-07-21T10:40:45.125Z,39.85
2018-07-21T10:41:45.187Z,40.13
2018-07-21T10:42:45.114Z,40.34
2018-07-21T10:43:45.102Z,40.58
2018-07-21T10:44:45.139Z,40.69
2018-07-21T10:45:45.091Z,40.88
2018-07-21T10:46:45.159Z,40.77
2018-07-21T10:47:45.074Z,40.84
2018-07-21T10:48:45.134Z,41.01
2018-07-21T10:49:45.072Z,41.08
2018-07-21T10:50:45.074Z,41.30
2018-07-21T10:51:45.565Z,41.49
2018-07-21T10:52:45.109Z,41.67
2018-07-21T10:53:45.045Z,41.94
2018-07-21T10:54:45.029Z,42.13
2018-07-21T10:55:45.026Z,42.21
2018-07-21T10:56:45.017Z,42.23
2018-07-21T10:57:45.075Z,42.12
2018-07-21T10:58:45.000Z,42.25
2018-07-21T10:59:44.995Z,42.39
2018-07-21T11:00:44.986Z,42.46
2018-07-21T11:01:44.980Z,42.59
2018-07-21T11:02:45.042Z,42.58
2018-07-21T11:03:44.975Z,42.71
2018-07-21T11:04:44.966Z,42.86
2018-07-21T11:05:44.957Z,43.00
2018-07-21T11:06:44.946Z,43.30
2018-07-21T11:07:45.007Z,43.37
2018-07-21T11:08:44.932Z,43.47
2018-07-21T11:09:44.930Z,43.49
2018-07-21T11:10:44.924Z,43.57
2018-07-21T11:11:44.915Z,43.59
2018-07-21T11:12:45.141Z,43.71
2018-07-21T11:13:44.904Z,43.78
2018-07-21T11:14:44.898Z,43.86
2018-07-21T11:15:44.892Z,43.66
2018-07-21T11:16:44.883Z,43.46
2018-07-21T11:17:44.947Z,43.40
2018-07-21T11:18:44.870Z,43.52
2018-07-21T11:19:44.872Z,43.66
2018-07-21T11:20:44.864Z,43.95
2018-07-21T11:21:44.854Z,44.05
2018-07-21T11:22:44.913Z,44.05
2018-07-21T11:23:44.841Z,44.24
2018-07-21T11:24:44.835Z,44.03
2018-07-21T11:25:44.829Z,43.97
2018-07-21T11:26:44.822Z,43.88
2018-07-21T11:27:44.882Z,43.97
2018-07-21T11:28:44.818Z,44.03
2018-07-21T11:29:44.804Z,44.10
2018-07-21T11:30:44.798Z,44.26
2018-07-21T11:31:44.792Z,44.19
2018-07-21T11:32:44.851Z,44.32
2018-07-21T11:33:45.549Z,44.41
2018-07-21T11:34:44.772Z,44.47
2018-07-21T11:35:44.943Z,44.50
2018-07-21T11:36:44.777Z,44.56
2018-07-21T11:37:44.821Z,44.66
2018-07-21T11:38:44.753Z,44.71
2018-07-21T11:39:44.741Z,44.89
2018-07-21T11:40:44.735Z,45.05
2018-07-21T11:41:44.727Z,45.01
2018-07-21T11:42:44.790Z,44.97
2018-07-21T11:43:44.713Z,44.34
2018-07-21T11:44:44.713Z,44.21
2018-07-21T11:45:44.701Z,43.41
2018-07-21T11:46:44.695Z,43.12
2018-07-21T11:47:44.756Z,43.12
2018-07-21T11:48:44.692Z,43.28
2018-07-21T11:49:44.679Z,43.40
2018-07-21T11:50:44.670Z,43.71
2018-07-21T11:51:44.667Z,43.95
2018-07-21T11:52:44.727Z,44.16
2018-07-21T11:53:44.651Z,44.47
2018-07-21T11:54:45.534Z,44.55
2018-07-21T11:55:44.646Z,44.66
2018-07-21T11:56:44.634Z,44.75
2018-07-21T11:57:44.697Z,44.86
2018-07-21T11:58:44.619Z,44.97
2018-07-21T11:59:44.621Z,45.23
2018-07-21T12:00:44.608Z,45.36
2018-07-21T12:01:44.604Z,45.51
2018-07-21T12:02:44.664Z,45.61
2018-07-21T12:03:44.589Z,45.72
2018-07-21T12:04:44.579Z,45.77
2018-07-21T12:05:44.651Z,45.57
2018-07-21T12:06:44.583Z,45.60
2018-07-21T12:07:44.628Z,45.60
2018-07-21T12:08:44.560Z,45.64
2018-07-21T12:09:44.547Z,45.84
2018-07-21T12:10:44.544Z,45.61
2018-07-21T12:11:44.538Z,45.10
2018-07-21T12:12:44.597Z,44.98
2018-07-21T12:13:44.525Z,44.80
2018-07-21T12:14:44.518Z,44.83
2018-07-21T12:15:45.028Z,44.85
2018-07-21T12:16:44.504Z,44.85
2018-07-21T12:17:44.560Z,45.01
2018-07-21T12:18:44.493Z,45.26
2018-07-21T12:19:44.487Z,45.32
2018-07-21T12:20:44.482Z,45.54
2018-07-21T12:21:44.476Z,45.69
2018-07-21T12:22:44.533Z,45.62
2018-07-21T12:23:44.464Z,45.39
2018-07-21T12:24:44.453Z,45.10
2018-07-21T12:25:44.453Z,45.17
2018-07-21T12:26:44.447Z,45.29
2018-07-21T12:27:44.507Z,45.40
2018-07-21T12:28:44.431Z,45.40
2018-07-21T12:29:44.424Z,45.43
2018-07-21T12:30:44.419Z,45.61
2018-07-21T12:31:44.418Z,45.77
2018-07-21T12:32:44.476Z,45.89
2018-07-21T12:33:44.519Z,45.85
2018-07-21T12:34:44.454Z,45.35
2018-07-21T12:35:44.388Z,45.16
2018-07-21T12:36:45.013Z,45.36
2018-07-21T12:37:44.386Z,45.33
2018-07-21T12:38:44.437Z,45.33
2018-07-21T12:39:44.360Z,45.05
2018-07-21T12:40:44.356Z,44.78
2018-07-21T12:41:44.351Z,44.71
2018-07-21T12:42:44.343Z,44.67
2018-07-21T12:43:44.414Z,44.76
2018-07-21T12:44:44.375Z,45.00
2018-07-21T12:45:44.322Z,45.23
2018-07-21T12:46:44.318Z,45.20
2018-07-21T12:47:44.311Z,45.36
2018-07-21T12:48:44.369Z,45.39
2018-07-21T12:49:44.298Z,45.38
2018-07-21T12:50:44.288Z,45.33
2018-07-21T12:51:44.283Z,45.42
2018-07-21T12:52:44.277Z,45.12
2018-07-21T12:53:44.335Z,45.02
2018-07-21T12:54:44.266Z,45.21
2018-07-21T12:55:44.258Z,45.20
2018-07-21T12:56:44.249Z,44.92